Time;durP1;ratioP1;P1;durP2;ratioP2;P2;SDS_P1;SDS_P2;PMS_P1;PMS_P2;Temp;Humidity;BMP_temperature;BMP_pressure;BME280_temperature;BME280_humidity;BME280_pressure;Samples;Min_cycle;Max_cycle;Signal;HPM_P1;HPM_P2
2021/04/08 00:01:33;;;;;;;140.90;51.27;;;3.40;61.40;;;;;;5051814;28;20470;-61
2021/04/08 00:03:59;;;;;;;99.27;38.33;;;3.40;61.60;;;;;;5050805;28;20028;-62
2021/04/08 00:06:25;;;;;;;93.07;35.93;;;3.40;61.20;;;;;;5050872;28;20381;-62
2021/04/08 00:08:50;;;;;;;78.00;28.37;;;3.40;61.30;;;;;;5052844;28;20075;-62
2021/04/08 00:11:16;;;;;;;76.80;28.53;;;3.40;61.20;;;;;;5052878;28;20014;-62
2021/04/08 00:13:42;;;;;;;66.23;26.20;;;3.30;61.70;;;;;;5046192;28;20551;-62
2021/04/08 00:16:07;;;;;;;51.10;20.77;;;3.30;61.80;;;;;;5031757;28;20071;-62
2021/04/08 00:18:33;;;;;;;56.97;19.87;;;3.30;62.00;;;;;;5048994;28;20435;-62
2021/04/08 00:20:59;;;;;;;41.57;16.20;;;3.30;61.70;;;;;;5050166;28;20013;-62
2021/04/08 00:23:25;;;;;;;29.73;12.47;;;3.30;61.50;;;;;;5052525;28;20024;-62
2021/04/08 00:25:50;;;;;;;35.87;12.83;;;3.20;60.90;;;;;;5052062;28;20053;-62
2021/04/08 00:28:16;;;;;;;28.37;11.10;;;3.20;61.80;;;;;;5052478;28;20044;-62
2021/04/08 00:30:45;;;;;;;26.23;11.83;;;3.20;61.60;;;;;;5052573;28;20362;-62
2021/04/08 00:33:14;;;;;;;22.57;9.80;;;3.10;61.50;;;;;;5052599;28;20112;-62
2021/04/08 00:35:41;;;;;;;22.63;9.07;;;3.10;62.50;;;;;;5052542;28;20024;-62
2021/04/08 00:38:07;;;;;;;18.37;7.57;;;3.10;63.50;;;;;;5052588;28;20031;-62
2021/04/08 00:40:33;;;;;;;12.83;7.60;;;3.10;62.50;;;;;;5052358;28;20107;-62
2021/04/08 00:42:59;;;;;;;10.50;5.60;;;3.10;62.00;;;;;;5052342;28;20199;-62
2021/04/08 00:45:25;;;;;;;12.03;6.23;;;3.10;61.70;;;;;;5052490;28;20430;-63
2021/04/08 00:47:51;;;;;;;10.37;5.63;;;3.10;61.50;;;;;;5052571;28;20088;-60
2021/04/08 00:50:19;;;;;;;11.00;5.27;;;3.10;61.00;;;;;;5050543;28;20127;-62
2021/04/08 00:52:56;;;;;;;14.00;6.10;;;3.10;61.10;;;;;;5050552;28;20098;-63
2021/04/08 00:55:25;;;;;;;10.50;5.70;;;3.10;60.80;;;;;;5052429;28;20033;-63
2021/04/08 00:57:54;;;;;;;11.03;5.77;;;3.10;62.50;;;;;;5051804;28;20083;-62
2021/04/08 01:00:20;;;;;;;11.07;4.83;;;3.10;61.60;;;;;;5049463;28;20090;-62
2021/04/08 01:02:45;;;;;;;8.63;4.80;;;3.10;61.70;;;;;;5049790;28;20029;-62
2021/04/08 01:05:11;;;;;;;8.13;4.60;;;3.10;62.00;;;;;;5051065;28;20037;-59
2021/04/08 01:07:39;;;;;;;7.43;4.07;;;3.00;62.60;;;;;;5052369;28;20032;-60
2021/04/08 01:10:07;;;;;;;9.03;4.63;;;3.10;61.40;;;;;;5052201;28;20021;-60
2021/04/08 01:12:33;;;;;;;7.53;4.70;;;3.00;62.00;;;;;;5051864;28;20087;-62
2021/04/08 01:15:00;;;;;;;8.47;3.93;;;3.00;61.60;;;;;;5052048;28;20036;-62
2021/04/08 01:17:49;;;;;;;8.57;4.20;;;3.10;61.50;;;;;;5052131;28;20074;-62
2021/04/08 01:20:30;;;;;;;8.03;4.23;;;3.00;61.30;;;;;;5050363;28;20065;-62
2021/04/08 01:23:33;;;;;;;7.43;3.87;;;3.00;60.70;;;;;;5048864;28;20120;-63
2021/04/08 01:26:14;;;;;;;6.70;3.95;;;3.10;60.90;;;;;;5044266;28;20029;-62
2021/04/08 01:28:43;;;;;;;8.23;4.37;;;3.00;60.40;;;;;;5055277;28;20154;-60
2021/04/08 01:31:11;;;;;;;7.67;4.23;;;3.00;60.40;;;;;;5053792;28;20438;-62
2021/04/08 01:34:03;;;;;;;8.03;4.47;;;3.00;60.50;;;;;;5052081;28;20111;-63
2021/04/08 01:36:32;;;;;;;9.10;4.07;;;3.00;61.50;;;;;;5051975;28;20009;-62
2021/04/08 01:39:10;;;;;;;7.30;3.70;;;3.00;62.00;;;;;;5055323;28;20060;-62
2021/04/08 01:41:39;;;;;;;7.87;4.33;;;3.00;60.80;;;;;;5055421;28;20025;-62
2021/04/08 01:44:08;;;;;;;6.27;3.87;;;3.00;60.30;;;;;;5055326;28;20355;-62
2021/04/08 01:46:36;;;;;;;7.33;3.73;;;3.00;61.30;;;;;;5055653;28;20362;-62
2021/04/08 01:49:02;;;;;;;9.07;3.57;;;3.00;61.60;;;;;;5055228;28;20028;-62
2021/04/08 01:51:30;;;;;;;5.53;3.17;;;3.00;61.50;;;;;;5054730;28;20569;-61
2021/04/08 01:54:02;;;;;;;5.83;3.67;;;3.00;61.30;;;;;;5055302;28;20044;-62
2021/04/08 01:56:32;;;;;;;6.82;3.78;;;3.00;61.00;;;;;;5055237;28;20153;-62
2021/04/08 01:59:00;;;;;;;7.80;2.90;;;3.00;61.50;;;;;;5054820;28;20107;-62
2021/04/08 02:01:26;;;;;;;7.53;3.27;;;3.00;61.90;;;;;;5055093;28;20021;-62
2021/04/08 02:03:52;;;;;;;7.10;2.90;;;2.90;60.70;;;;;;5055233;28;20107;-63
2021/04/08 02:06:21;;;;;;;4.83;2.50;;;2.90;60.60;;;;;;5053347;28;20028;-64
2021/04/08 02:08:50;;;;;;;6.10;2.60;;;3.00;60.70;;;;;;5033860;28;20371;-63
2021/04/08 02:11:16;;;;;;;5.50;2.50;;;2.90;60.60;;;;;;5054322;28;20029;-62
2021/04/08 02:13:45;;;;;;;4.40;2.63;;;3.00;59.50;;;;;;5054402;28;20169;-62
2021/04/08 02:16:12;;;;;;;6.07;2.40;;;3.00;60.60;;;;;;5054885;28;20413;-62
2021/04/08 02:18:39;;;;;;;7.20;3.00;;;3.00;60.50;;;;;;5054690;28;20032;-62
2021/04/08 02:21:07;;;;;;;5.03;2.40;;;3.00;59.40;;;;;;5054658;28;20067;-63
2021/04/08 02:23:35;;;;;;;4.43;2.13;;;3.00;60.80;;;;;;5054522;28;20060;-62
2021/04/08 02:26:01;;;;;;;4.93;2.20;;;3.00;60.50;;;;;;5054558;28;20032;-60
2021/04/08 02:28:28;;;;;;;5.60;2.40;;;3.00;60.40;;;;;;5054614;28;20052;-62
2021/04/08 02:30:55;;;;;;;4.60;2.27;;;3.00;60.60;;;;;;5054598;28;20413;-62
2021/04/08 02:33:22;;;;;;;4.53;2.50;;;3.00;60.60;;;;;;5054461;28;20510;-62
2021/04/08 02:35:49;;;;;;;7.67;2.53;;;3.00;60.80;;;;;;5054450;28;20029;-60
2021/04/08 02:38:16;;;;;;;7.83;2.23;;;3.00;60.90;;;;;;5054252;28;20489;-62
2021/04/08 02:40:42;;;;;;;5.17;2.03;;;3.00;59.80;;;;;;5054412;28;20059;-62
2021/04/08 02:43:10;;;;;;;4.87;2.30;;;3.10;59.10;;;;;;5045995;28;20057;-62
2021/04/08 02:45:36;;;;;;;3.87;1.97;;;3.10;58.70;;;;;;5035189;28;20025;-62
2021/04/08 02:48:01;;;;;;;3.93;2.23;;;3.10;58.10;;;;;;5053056;28;20060;-62
2021/04/08 02:50:27;;;;;;;7.80;2.30;;;3.00;58.20;;;;;;5052198;28;20516;-60
2021/04/08 02:53:02;;;;;;;7.73;2.60;;;3.00;58.20;;;;;;5053869;28;20025;-62
2021/04/08 02:55:57;;;;;;;6.87;3.17;;;3.00;59.50;;;;;;5054218;28;20120;-62
2021/04/08 02:58:28;;;;;;;5.83;2.30;;;2.90;60.60;;;;;;5054348;28;20473;-62
2021/04/08 03:01:02;;;;;;;4.17;2.77;;;2.90;59.40;;;;;;5053931;28;20029;-62
2021/04/08 03:03:35;;;;;;;7.80;3.20;;;2.90;59.60;;;;;;5054081;28;20025;-60
2021/04/08 03:06:05;;;;;;;6.20;2.60;;;2.90;59.20;;;;;;5054143;28;20032;-62
2021/04/08 03:08:31;;;;;;;8.23;3.70;;;2.80;60.20;;;;;;5053785;28;20064;-62
2021/04/08 03:11:04;;;;;;;8.53;3.07;;;2.80;59.80;;;;;;5053827;28;20550;-62
2021/04/08 03:13:34;;;;;;;8.40;2.65;;;2.70;60.10;;;;;;5053891;28;20119;-62
2021/04/08 03:16:04;;;;;;;5.80;2.27;;;2.70;60.20;;;;;;5053657;28;20044;-62
2021/04/08 03:18:31;;;;;;;7.13;2.53;;;2.70;60.40;;;;;;5053814;28;20025;-62
2021/04/08 03:20:57;;;;;;;5.90;2.87;;;2.70;60.40;;;;;;5048649;28;20104;-62
2021/04/08 03:23:25;;;;;;;6.47;2.57;;;2.70;60.30;;;;;;5048783;28;20103;-61
2021/04/08 03:25:53;;;;;;;6.07;2.50;;;2.70;59.80;;;;;;5049828;28;20080;-62
2021/04/08 03:28:20;;;;;;;5.90;2.10;;;2.70;60.00;;;;;;5050636;28;20052;-61
2021/04/08 03:30:46;;;;;;;5.63;2.27;;;2.60;60.00;;;;;;5053438;28;20021;-62
2021/04/08 03:33:14;;;;;;;7.20;3.07;;;2.60;60.30;;;;;;5053290;28;20029;-61
2021/04/08 03:35:45;;;;;;;6.47;2.80;;;2.70;60.20;;;;;;5053222;28;20117;-62
2021/04/08 03:38:11;;;;;;;7.37;2.90;;;2.70;58.90;;;;;;5053488;28;20031;-62
2021/04/08 03:40:37;;;;;;;8.00;2.83;;;2.60;58.40;;;;;;5053185;28;20067;-61
2021/04/08 03:43:05;;;;;;;24.60;6.70;;;2.70;58.50;;;;;;5053393;28;20057;-62
2021/04/08 03:45:31;;;;;;;18.90;7.60;;;2.70;58.50;;;;;;5053092;28;20021;-61
2021/04/08 03:48:01;;;;;;;19.70;6.80;;;2.70;58.80;;;;;;5053327;28;20383;-62
2021/04/08 03:50:30;;;;;;;16.33;7.07;;;2.70;59.10;;;;;;5053211;28;20128;-62
2021/04/08 03:52:57;;;;;;;13.97;6.67;;;2.60;59.60;;;;;;5053103;28;20103;-62
2021/04/08 03:55:26;;;;;;;17.13;6.27;;;2.60;59.40;;;;;;5053214;28;20079;-61
2021/04/08 03:57:54;;;;;;;16.07;7.13;;;2.50;60.60;;;;;;5051779;28;20358;-62
2021/04/08 04:00:20;;;;;;;22.73;5.97;;;2.50;60.40;;;;;;5033281;28;20028;-62
2021/04/08 04:02:47;;;;;;;13.93;5.10;;;2.40;60.70;;;;;;5050773;28;20021;-62
2021/04/08 04:05:13;;;;;;;14.83;5.20;;;2.40;60.60;;;;;;5052776;28;20024;-62
2021/04/08 04:07:48;;;;;;;12.47;5.07;;;2.40;60.60;;;;;;5053114;28;20485;-61
2021/04/08 04:10:15;;;;;;;11.73;4.80;;;2.40;61.30;;;;;;5052935;28;20029;-61
2021/04/08 04:12:42;;;;;;;9.97;4.20;;;2.30;61.40;;;;;;5052937;28;20036;-62
2021/04/08 04:15:09;;;;;;;11.43;4.20;;;2.30;61.00;;;;;;5052828;28;20033;-62
2021/04/08 04:17:35;;;;;;;14.50;4.33;;;2.30;61.30;;;;;;5052889;28;20021;-62
2021/04/08 04:20:04;;;;;;;11.27;4.20;;;2.30;61.80;;;;;;5052497;28;20054;-61
2021/04/08 04:22:29;;;;;;;9.47;3.43;;;2.30;61.10;;;;;;5052721;28;20534;-62
2021/04/08 04:24:55;;;;;;;14.50;4.00;;;2.30;61.40;;;;;;5052967;28;20095;-62
2021/04/08 04:27:21;;;;;;;10.90;3.87;;;2.30;61.50;;;;;;5052635;28;20033;-62
2021/04/08 04:29:47;;;;;;;14.13;3.13;;;2.30;62.30;;;;;;5052438;28;20105;-62
2021/04/08 04:32:13;;;;;;;6.33;3.37;;;2.30;61.60;;;;;;5051208;28;20079;-62
2021/04/08 04:34:48;;;;;;;11.60;3.93;;;2.30;61.10;;;;;;5047510;28;20116;-61
2021/04/08 04:37:14;;;;;;;14.03;4.50;;;2.30;60.90;;;;;;5031049;28;20025;-61
2021/04/08 04:39:40;;;;;;;11.73;3.40;;;2.30;61.10;;;;;;5045077;28;20377;-62
2021/04/08 04:42:06;;;;;;;18.10;4.37;;;2.30;62.20;;;;;;5050549;28;20033;-61
2021/04/08 04:44:32;;;;;;;6.53;3.77;;;2.20;61.20;;;;;;5052658;28;20130;-62
2021/04/08 04:46:58;;;;;;;10.00;4.13;;;2.20;60.70;;;;;;5052601;28;20040;-62
2021/04/08 04:49:25;;;;;;;9.67;4.27;;;2.20;61.60;;;;;;5052232;28;20028;-62
2021/04/08 04:51:51;;;;;;;8.33;4.23;;;2.20;62.00;;;;;;5052821;28;20048;-62
2021/04/08 04:54:17;;;;;;;8.37;4.07;;;2.20;62.20;;;;;;5052368;28;20041;-62
2021/04/08 04:56:43;;;;;;;11.03;3.77;;;2.20;62.10;;;;;;5052583;28;20492;-61
2021/04/08 04:59:08;;;;;;;13.80;4.10;;;2.20;62.20;;;;;;5054923;28;20064;-62
2021/04/08 05:01:34;;;;;;;9.57;4.17;;;2.10;62.80;;;;;;5056341;28;20108;-61
2021/04/08 05:04:00;;;;;;;14.60;4.00;;;2.20;63.30;;;;;;5056042;28;20107;-62
2021/04/08 05:06:25;;;;;;;13.73;3.93;;;2.20;64.10;;;;;;5056049;28;20053;-62
2021/04/08 05:08:51;;;;;;;8.73;3.63;;;2.20;63.90;;;;;;5053906;28;20029;-62
2021/04/08 05:11:17;;;;;;;8.33;3.23;;;2.20;64.00;;;;;;5054218;28;20054;-62
2021/04/08 05:13:43;;;;;;;10.70;3.47;;;2.30;63.80;;;;;;5055774;28;20032;-62
2021/04/08 05:16:08;;;;;;;8.63;3.37;;;2.30;65.10;;;;;;5055818;28;20032;-62
2021/04/08 05:18:34;;;;;;;11.87;3.67;;;2.30;65.50;;;;;;5056070;28;20056;-62
2021/04/08 05:21:00;;;;;;;9.17;4.03;;;2.40;64.80;;;;;;5055069;28;20048;-62
2021/04/08 05:23:26;;;;;;;10.67;3.57;;;2.40;64.20;;;;;;5054559;28;20029;-62
2021/04/08 05:25:52;;;;;;;10.50;3.33;;;2.50;63.80;;;;;;5053125;28;20033;-61
2021/04/08 05:28:18;;;;;;;9.70;4.50;;;2.50;64.40;;;;;;5052775;28;20044;-62
2021/04/08 05:30:44;;;;;;;10.07;4.10;;;2.60;64.20;;;;;;5052879;28;20021;-62
2021/04/08 05:33:10;;;;;;;13.00;4.43;;;2.60;64.40;;;;;;5052596;28;20493;-61
2021/04/08 05:35:36;;;;;;;11.20;3.60;;;2.60;63.90;;;;;;5055460;28;20143;-62
2021/04/08 05:38:02;;;;;;;11.40;3.67;;;2.70;64.30;;;;;;5055558;28;20024;-62
2021/04/08 05:40:28;;;;;;;10.23;3.30;;;2.70;64.50;;;;;;5055617;28;20059;-62
2021/04/08 05:42:54;;;;;;;6.77;3.40;;;2.80;65.10;;;;;;5055580;28;20060;-61
2021/04/08 05:45:21;;;;;;;10.77;3.43;;;2.80;65.50;;;;;;5055492;28;20025;-62
2021/04/08 05:47:47;;;;;;;6.87;2.70;;;2.90;65.30;;;;;;5037960;28;20418;-61
2021/04/08 05:50:14;;;;;;;5.63;2.90;;;2.90;65.40;;;;;;5035584;28;20094;-61
2021/04/08 05:52:39;;;;;;;7.93;2.97;;;3.00;64.80;;;;;;5053732;28;20032;-62
2021/04/08 05:55:06;;;;;;;9.03;3.50;;;3.10;65.70;;;;;;5051050;28;20063;-62
2021/04/08 05:57:32;;;;;;;10.33;3.40;;;3.20;65.90;;;;;;5055147;28;20025;-61
2021/04/08 05:59:58;;;;;;;6.83;2.30;;;3.20;64.90;;;;;;5053489;28;20108;-64
2021/04/08 06:02:24;;;;;;;7.43;2.60;;;3.40;64.20;;;;;;5053733;28;20101;-61
2021/04/08 06:04:50;;;;;;;5.17;2.50;;;3.40;63.50;;;;;;5052795;28;20032;-63
2021/04/08 06:07:15;;;;;;;9.33;2.67;;;3.50;63.50;;;;;;5052043;28;20116;-61
2021/04/08 06:09:41;;;;;;;6.47;3.27;;;3.50;62.90;;;;;;5051566;28;20433;-62
2021/04/08 06:12:08;;;;;;;6.33;2.90;;;3.60;62.80;;;;;;5053030;28;20032;-62
2021/04/08 06:14:35;;;;;;;5.40;2.77;;;3.70;62.40;;;;;;5051265;28;20033;-62
2021/04/08 06:17:01;;;;;;;8.63;2.67;;;3.70;61.80;;;;;;5053749;28;20437;-62
2021/04/08 06:19:27;;;;;;;5.37;2.47;;;3.80;61.80;;;;;;5051857;28;20029;-63
2021/04/08 06:21:53;;;;;;;5.23;2.90;;;3.90;61.60;;;;;;5053540;28;20477;-64
2021/04/08 06:24:19;;;;;;;4.43;2.70;;;3.90;61.30;;;;;;5052879;28;20033;-62
2021/04/08 06:26:45;;;;;;;3.63;2.40;;;4.00;60.90;;;;;;5053967;28;20044;-63
2021/04/08 06:29:11;;;;;;;6.90;3.07;;;4.10;61.20;;;;;;5047432;28;20025;-62
2021/04/08 06:31:37;;;;;;;6.83;2.77;;;4.10;60.90;;;;;;5041578;28;20021;-63
2021/04/08 06:34:02;;;;;;;5.97;2.60;;;4.20;60.50;;;;;;5053747;28;20385;-62
2021/04/08 06:36:28;;;;;;;7.30;3.17;;;4.20;60.10;;;;;;5049857;28;20021;-66
2021/04/08 06:38:54;;;;;;;7.30;3.13;;;4.30;60.00;;;;;;5050999;28;20078;-62
2021/04/08 06:41:20;;;;;;;6.10;3.50;;;4.40;60.10;;;;;;5051584;28;20178;-63
2021/04/08 06:43:46;;;;;;;7.63;3.53;;;4.50;60.30;;;;;;5050721;28;20526;-62
2021/04/08 06:46:23;;;;;;;11.20;3.93;;;4.50;59.40;;;;;;5046155;28;20036;-64
2021/04/08 06:49:09;;;;;;;8.27;3.60;;;4.60;60.10;;;;;;5052394;28;20025;-62
2021/04/08 06:51:38;;;;;;;6.70;3.20;;;4.70;60.30;;;;;;5047910;28;20098;-61
2021/04/08 06:54:05;;;;;;;9.27;2.97;;;4.80;60.50;;;;;;5047875;28;20031;-62
2021/04/08 06:56:33;;;;;;;6.73;3.53;;;4.80;60.70;;;;;;5050354;28;20021;-62
2021/04/08 06:58:59;;;;;;;7.83;3.03;;;4.90;60.50;;;;;;5031886;28;20386;-61
2021/04/08 07:01:25;;;;;;;4.07;2.40;;;5.00;60.00;;;;;;5050659;28;20047;-62
2021/04/08 07:03:53;;;;;;;5.73;2.77;;;5.10;60.40;;;;;;5051157;28;20025;-61
2021/04/08 07:06:18;;;;;;;7.23;3.63;;;5.20;60.50;;;;;;5046034;28;20378;-62
2021/04/08 07:08:45;;;;;;;7.00;3.43;;;5.30;60.80;;;;;;5053847;28;20028;-62
2021/04/08 07:11:11;;;;;;;8.53;3.70;;;5.40;60.00;;;;;;5052589;28;20029;-62
2021/04/08 07:13:37;;;;;;;6.80;3.60;;;5.50;60.10;;;;;;5052676;28;20447;-61
2021/04/08 07:16:03;;;;;;;12.53;4.47;;;5.50;59.90;;;;;;5048868;28;20053;-61
2021/04/08 07:18:29;;;;;;;8.57;4.43;;;5.60;60.00;;;;;;5033550;28;20079;-61
2021/04/08 07:20:56;;;;;;;13.57;4.77;;;5.70;59.60;;;;;;5032992;28;20033;-66
2021/04/08 07:23:23;;;;;;;15.23;5.20;;;5.80;60.10;;;;;;5033607;28;20033;-64
2021/04/08 07:26:06;;;;;;;7.77;4.33;;;5.90;60.40;;;;;;5043912;28;20040;-63
2021/04/08 07:28:39;;;;;;;10.75;4.10;;;6.00;59.80;;;;;;5049497;28;20047;-62
2021/04/08 07:31:40;;;;;;;9.70;4.33;;;6.10;60.30;;;;;;5052938;28;20048;-63
2021/04/08 07:34:06;;;;;;;10.37;4.50;;;6.10;60.20;;;;;;4991482;28;20380;-66
2021/04/08 07:36:37;;;;;;;6.00;3.40;;;6.30;59.70;;;;;;5040344;28;20047;-66
2021/04/08 07:39:17;;;;;;;10.77;4.30;;;6.30;60.10;;;;;;5053398;28;20064;-60
2021/04/08 07:41:43;;;;;;;5.07;3.37;;;6.50;59.70;;;;;;5053188;28;20021;-61
2021/04/08 07:44:12;;;;;;;5.80;3.30;;;6.50;59.30;;;;;;5052335;28;20033;-60
2021/04/08 07:46:39;;;;;;;12.57;3.80;;;6.60;59.20;;;;;;5052989;28;20032;-61
2021/04/08 07:49:21;;;;;;;6.97;3.20;;;6.80;58.90;;;;;;5053187;28;20400;-67
2021/04/08 07:51:47;;;;;;;5.75;2.85;;;6.80;59.20;;;;;;5052788;28;20035;-67
2021/04/08 07:54:17;;;;;;;5.20;2.40;;;7.00;58.30;;;;;;5052747;28;20401;-62
2021/04/08 07:56:44;;;;;;;4.17;2.40;;;7.10;57.90;;;;;;5053026;28;20021;-61
2021/04/08 07:59:17;;;;;;;4.03;2.10;;;7.20;57.80;;;;;;5053118;28;20049;-66
2021/04/08 08:01:48;;;;;;;2.58;1.90;;;7.30;57.00;;;;;;5052955;28;20021;-67
2021/04/08 08:04:24;;;;;;;3.30;2.23;;;7.40;57.20;;;;;;5052633;28;20033;-61
2021/04/08 08:06:52;;;;;;;6.27;1.80;;;7.50;57.20;;;;;;5053062;28;20048;-62
2021/04/08 08:09:23;;;;;;;8.23;3.40;;;7.60;56.30;;;;;;5052662;28;20017;-65
2021/04/08 08:11:50;;;;;;;4.57;2.27;;;7.70;56.90;;;;;;5051565;28;20036;-60
2021/04/08 08:14:17;;;;;;;2.73;1.97;;;7.90;53.50;;;;;;5051675;28;20076;-60
2021/04/08 08:17:05;;;;;;;3.57;2.03;;;7.90;54.10;;;;;;5052805;28;20031;-61
2021/04/08 08:19:31;;;;;;;6.87;2.30;;;8.00;54.60;;;;;;5052575;28;20052;-60
2021/04/08 08:21:58;;;;;;;6.53;2.30;;;8.10;54.40;;;;;;5052672;28;20031;-61
2021/04/08 08:24:23;;;;;;;6.67;2.37;;;8.20;54.80;;;;;;5052508;28;20017;-62
2021/04/08 08:26:51;;;;;;;8.67;2.27;;;8.30;54.80;;;;;;5052403;28;20025;-61
2021/04/08 08:29:25;;;;;;;7.73;2.40;;;8.40;54.20;;;;;;5052513;28;20516;-61
2021/04/08 08:31:54;;;;;;;4.30;2.20;;;8.50;54.40;;;;;;5052910;28;20041;-62
2021/04/08 08:34:34;;;;;;;3.50;2.10;;;8.60;53.40;;;;;;5056809;28;20261;-62
2021/04/08 08:37:02;;;;;;;7.50;2.50;;;8.70;52.40;;;;;;5056718;28;20025;-62
2021/04/08 08:39:48;;;;;;;7.43;2.60;;;8.80;51.70;;;;;;5056384;28;20436;-62
2021/04/08 08:42:16;;;;;;;3.80;2.70;;;8.90;53.00;;;;;;5057091;28;20017;-62
2021/04/08 08:44:43;;;;;;;7.37;2.60;;;8.90;53.00;;;;;;5056459;28;20025;-63
2021/04/08 08:47:29;;;;;;;4.47;2.27;;;9.00;52.10;;;;;;5056541;28;20029;-62
2021/04/08 08:49:59;;;;;;;5.73;2.57;;;9.10;50.50;;;;;;5056258;28;20067;-62
2021/04/08 08:52:27;;;;;;;4.50;2.20;;;9.20;50.20;;;;;;5056661;28;20029;-62
2021/04/08 08:54:53;;;;;;;5.13;2.20;;;9.20;52.50;;;;;;5056210;28;20033;-62
2021/04/08 08:57:21;;;;;;;4.73;2.43;;;9.30;51.40;;;;;;5056363;28;20049;-63
2021/04/08 08:59:49;;;;;;;3.60;2.43;;;9.40;50.10;;;;;;5056350;28;20057;-62
2021/04/08 09:02:15;;;;;;;6.23;2.53;;;9.50;50.80;;;;;;5056566;28;20056;-64
2021/04/08 09:04:41;;;;;;;7.70;2.40;;;9.60;50.60;;;;;;5056122;28;20028;-62
2021/04/08 09:07:10;;;;;;;5.67;2.57;;;9.70;51.40;;;;;;5056192;28;20021;-62
2021/04/08 09:09:42;;;;;;;4.60;2.40;;;9.80;50.90;;;;;;5056300;28;20021;-62
2021/04/08 09:12:15;;;;;;;5.70;2.50;;;10.00;49.70;;;;;;5056354;28;20112;-62
2021/04/08 09:14:42;;;;;;;4.90;2.30;;;10.10;50.20;;;;;;5056187;28;20029;-62
2021/04/08 09:17:08;;;;;;;3.87;2.07;;;10.20;47.70;;;;;;5056063;28;20052;-62
2021/04/08 09:19:34;;;;;;;3.93;2.33;;;10.30;47.90;;;;;;5054112;28;20065;-60
2021/04/08 09:22:03;;;;;;;3.60;1.83;;;10.40;48.60;;;;;;5046600;28;20017;-62
2021/04/08 09:24:33;;;;;;;4.13;1.80;;;10.40;44.20;;;;;;5051762;28;20021;-62
2021/04/08 09:27:00;;;;;;;4.53;2.20;;;10.50;41.20;;;;;;5055045;28;20359;-62
2021/04/08 09:29:41;;;;;;;2.63;1.70;;;10.50;40.90;;;;;;5055914;28;20025;-62
2021/04/08 09:32:24;;;;;;;2.97;1.90;;;10.50;40.70;;;;;;5053902;28;20036;-62
2021/04/08 09:35:08;;;;;;;2.87;1.60;;;10.50;40.90;;;;;;5051367;28;20041;-62
2021/04/08 09:37:46;;;;;;;2.97;1.83;;;10.50;40.80;;;;;;5055376;28;20109;-62
2021/04/08 09:40:24;;;;;;;2.33;1.60;;;10.60;39.20;;;;;;5055253;28;20107;-62
2021/04/08 09:42:55;;;;;;;2.70;1.17;;;10.70;37.80;;;;;;5055507;28;20025;-62
2021/04/08 09:45:21;;;;;;;2.20;1.33;;;10.70;34.20;;;;;;5038458;28;20440;-62
2021/04/08 09:48:05;;;;;;;3.00;1.10;;;10.70;33.50;;;;;;5054300;28;20465;-62
2021/04/08 09:50:57;;;;;;;3.47;1.17;;;10.80;34.70;;;;;;5053919;28;20088;-62
2021/04/08 09:53:26;;;;;;;1.90;0.90;;;10.80;36.10;;;;;;5053790;28;20025;-62
2021/04/08 09:56:02;;;;;;;1.53;0.80;;;10.90;31.50;;;;;;5054975;28;20040;-62
2021/04/08 09:58:31;;;;;;;1.93;1.30;;;11.00;30.80;;;;;;5046748;28;20104;-62
2021/04/08 10:00:59;;;;;;;1.03;0.60;;;11.10;30.80;;;;;;5052013;28;20037;-62
2021/04/08 10:03:32;;;;;;;3.93;1.00;;;11.10;29.90;;;;;;5053793;28;20029;-62
2021/04/08 10:05:59;;;;;;;2.05;0.93;;;11.20;29.10;;;;;;5055288;28;20051;-63
2021/04/08 10:08:26;;;;;;;2.57;1.53;;;11.20;30.20;;;;;;5054901;28;20104;-62
2021/04/08 10:10:52;;;;;;;2.97;1.20;;;11.10;30.50;;;;;;5054469;28;20036;-63
2021/04/08 10:13:25;;;;;;;3.57;1.00;;;11.20;32.10;;;;;;5055132;28;20029;-63
2021/04/08 10:15:56;;;;;;;4.28;0.90;;;11.30;33.40;;;;;;5055274;28;20477;-62
2021/04/08 10:18:26;;;;;;;4.03;1.13;;;11.50;31.90;;;;;;5055243;28;20428;-62
2021/04/08 10:20:55;;;;;;;0.93;0.75;;;11.50;28.80;;;;;;5055063;28;20359;-63
2021/04/08 10:23:41;;;;;;;3.57;0.83;;;11.50;31.20;;;;;;5054666;28;20040;-64
2021/04/08 10:26:16;;;;;;;1.45;0.77;;;11.60;30.00;;;;;;5054942;28;20021;-63
2021/04/08 10:28:54;;;;;;;2.20;0.95;;;11.60;29.00;;;;;;5053495;28;20075;-62
2021/04/08 10:31:30;;;;;;;2.40;1.10;;;11.60;29.60;;;;;;5053866;28;20067;-63
2021/04/08 10:34:02;;;;;;;1.45;0.75;;;11.70;28.40;;;;;;5051909;28;20041;-63
2021/04/08 10:36:36;;;;;;;2.10;1.20;;;11.70;29.40;;;;;;5048207;28;20028;-62
2021/04/08 10:39:25;;;;;;;1.20;0.90;;;11.80;27.90;;;;;;5035334;28;20021;-62
2021/04/08 10:41:59;;;;;;;2.60;1.15;;;11.80;27.70;;;;;;5049075;28;20017;-62
2021/04/08 10:44:30;;;;;;;1.38;0.90;;;11.80;27.70;;;;;;5052175;28;20082;-62
2021/04/08 10:47:01;;;;;;;2.30;1.38;;;11.80;29.20;;;;;;5054027;28;20079;-62
2021/04/08 10:49:29;;;;;;;2.03;1.50;;;11.90;29.10;;;;;;5053976;28;20032;-62
2021/04/08 10:51:56;;;;;;;2.35;1.40;;;11.90;28.30;;;;;;5054142;28;20035;-62
2021/04/08 10:54:27;;;;;;;3.08;1.48;;;11.90;29.50;;;;;;5054371;28;20033;-62
2021/04/08 10:56:53;;;;;;;2.70;1.50;;;11.90;27.90;;;;;;5052985;28;20017;-62
2021/04/08 10:59:21;;;;;;;2.05;1.38;;;11.90;28.40;;;;;;5054357;28;20120;-63
2021/04/08 11:01:49;;;;;;;2.30;1.60;;;11.90;29.50;;;;;;5054167;28;20025;-62
2021/04/08 11:04:15;;;;;;;4.20;1.88;;;12.00;29.20;;;;;;5054157;28;20029;-63
2021/04/08 11:06:41;;;;;;;3.25;1.92;;;12.10;28.50;;;;;;5053888;28;20359;-62
2021/04/08 11:09:07;;;;;;;2.22;1.58;;;12.20;29.20;;;;;;5051305;28;20040;-62
2021/04/08 11:11:34;;;;;;;2.70;1.88;;;12.30;29.10;;;;;;5049748;28;20492;-63
2021/04/08 11:13:59;;;;;;;3.20;1.70;;;12.30;28.70;;;;;;5050851;28;20035;-63
2021/04/08 11:16:28;;;;;;;3.25;1.52;;;12.40;29.00;;;;;;5050364;28;20541;-62
2021/04/08 11:19:00;;;;;;;3.28;1.90;;;12.40;28.70;;;;;;5045176;28;20104;-62
2021/04/08 11:21:27;;;;;;;4.68;2.55;;;12.50;29.30;;;;;;5051146;28;20033;-62
2021/04/08 11:23:54;;;;;;;4.15;1.98;;;12.60;29.20;;;;;;5053553;28;20489;-62
2021/04/08 11:26:20;;;;;;;4.72;1.90;;;12.60;29.90;;;;;;5053430;28;20017;-62
2021/04/08 11:28:53;;;;;;;4.57;1.67;;;12.70;29.80;;;;;;5053669;28;20032;-62
2021/04/08 11:31:21;;;;;;;3.58;1.52;;;12.70;29.60;;;;;;5048544;28;20017;-62
2021/04/08 11:34:02;;;;;;;2.75;1.58;;;12.70;31.10;;;;;;5049438;28;20033;-62
2021/04/08 11:36:27;;;;;;;2.13;1.20;;;12.80;29.20;;;;;;5052170;28;20021;-62
2021/04/08 11:38:53;;;;;;;6.47;1.38;;;;;;;;;;5046092;28;20025;-63
2021/04/08 11:41:19;;;;;;;2.92;1.33;;;12.90;30.00;;;;;;5046064;28;20025;-63
2021/04/08 11:43:53;;;;;;;2.58;1.58;;;13.10;31.20;;;;;;5046342;28;20028;-63
2021/04/08 11:46:35;;;;;;;1.60;1.05;;;13.20;28.80;;;;;;5049674;28;20489;-62
2021/04/08 11:49:13;;;;;;;3.10;1.35;;;13.30;28.80;;;;;;5048323;28;20040;-62
2021/04/08 11:51:39;;;;;;;2.47;1.48;;;13.30;29.50;;;;;;5050314;28;20447;-65
2021/04/08 11:54:09;;;;;;;2.60;1.30;;;13.50;28.90;;;;;;5044480;28;20119;-62
2021/04/08 11:56:39;;;;;;;2.65;1.30;;;13.60;28.40;;;;;;5049371;28;20107;-62
2021/04/08 11:59:13;;;;;;;1.90;1.10;;;13.70;27.40;;;;;;5050568;28;20079;-62
2021/04/08 12:01:44;;;;;;;1.77;1.10;;;13.70;25.80;;;;;;5050609;28;20028;-62
2021/04/08 12:04:17;;;;;;;1.95;1.27;;;13.60;26.30;;;;;;5046478;28;20040;-63
2021/04/08 12:06:57;;;;;;;2.53;1.15;;;13.50;25.60;;;;;;5049039;28;20024;-63
2021/04/08 12:09:49;;;;;;;2.95;1.45;;;13.60;26.00;;;;;;5051908;28;20057;-62
2021/04/08 12:12:15;;;;;;;2.20;1.27;;;13.60;27.00;;;;;;5047540;28;20041;-63
2021/04/08 12:14:53;;;;;;;2.85;1.30;;;13.70;27.20;;;;;;5052876;28;20619;-62
2021/04/08 12:17:19;;;;;;;3.45;1.40;;;;;;;;;;5052653;28;20021;-61
2021/04/08 12:19:45;;;;;;;1.95;1.25;;;14.00;26.90;;;;;;5052745;28;20029;-62
2021/04/08 12:22:13;;;;;;;1.38;1.02;;;14.10;26.40;;;;;;5050411;28;20431;-62
2021/04/08 12:24:40;;;;;;;3.28;1.20;;;14.20;26.00;;;;;;5049978;28;20504;-62
2021/04/08 12:27:17;;;;;;;2.65;1.30;;;14.20;26.00;;;;;;5051558;28;20517;-62
2021/04/08 12:29:42;;;;;;;1.67;1.20;;;14.20;26.60;;;;;;5052454;28;20029;-62
2021/04/08 12:32:08;;;;;;;2.33;1.27;;;14.20;25.80;;;;;;5052713;28;20036;-62
2021/04/08 12:34:34;;;;;;;2.63;1.33;;;14.20;25.70;;;;;;5052510;28;20091;-62
2021/04/08 12:36:59;;;;;;;2.05;1.10;;;14.20;27.00;;;;;;5052599;28;20021;-62
2021/04/08 12:39:27;;;;;;;1.23;0.98;;;14.30;26.10;;;;;;5051932;28;20465;-62
2021/04/08 12:41:53;;;;;;;3.78;1.33;;;14.40;26.00;;;;;;5049781;28;20019;-62
2021/04/08 12:44:18;;;;;;;4.88;1.90;;;14.50;26.30;;;;;;5047510;28;20035;-63
2021/04/08 12:46:44;;;;;;;3.05;1.48;;;14.60;26.20;;;;;;5048644;28;20434;-63
2021/04/08 12:49:10;;;;;;;2.97;1.48;;;14.70;27.20;;;;;;5052002;28;20512;-63
2021/04/08 12:51:35;;;;;;;3.13;1.58;;;14.60;25.80;;;;;;5051483;28;20041;-62
2021/04/08 12:54:01;;;;;;;3.85;1.17;;;14.60;27.70;;;;;;5050672;28;20045;-61
2021/04/08 12:56:27;;;;;;;2.13;1.40;;;14.70;26.10;;;;;;5052305;28;20394;-63
2021/04/08 12:58:53;;;;;;;2.17;1.30;;;14.80;26.10;;;;;;5051057;28;20025;-62
2021/04/08 13:01:19;;;;;;;2.88;1.73;;;14.80;27.20;;;;;;5052233;28;20078;-62
2021/04/08 13:03:45;;;;;;;4.78;1.45;;;14.80;26.20;;;;;;5052760;28;20095;-62